PWSweather.com
Personal Weather Stations
Station Observations
KTXDECATUR
Wildwood, Decatur, TX 76234

WildwoodDecatur, TX 76234

Lat: 33.2634, Lon: -97.6651

Elevation: 800

Station Type: Davis Vantage Pro 2

http://weather.wildwoodnaturist.com

Latest ConditionsUpdated 5:10:01 PM CST Saturday, Feb 6, 2016
Currently Today's Max Today's Min Today's Average
Temperature 52.5°F11.4°C 53.6°F12.0°C 30.8°F-0.7°C 42.9°F6.1°C
Dew Point 35.4°F1.9°C 39.0°F3.9°C 25.4°F-3.7°C 33.1°F0.6°C
Winds 1.2 mph NE1.9 kmh NE 10.4 mph SSE16.7 kmh SSE - 4.3 mph 6.9 kmh
Wind Gusts 1.2 mph1.9 kmh 17.3 mph27.8 kmh - -
Humidity 52% 85% 50% 69%
Pressure 30.33 in1027.1 mb 30.41 in1029.8 mb 30.19 in1022.4 mb -
Hour Temp Dew Point Humidity Winds Wind Gusts Pressure Precip Precip Rate Daily Precip Total
05:10 PM 52.5°F11.4°C 35.4°F1.9°C 52% 1.2 mph NE1.9 kmh NE 1.2 mph1.9 kmh 30.33 in1027.1 mb - 0.00 in0.0 mm 0.00 in0.0 mm
05:00 PM 52.5°F11.4°C 34.9°F1.6°C 51% 2.3 mph NE3.7 kmh NE 2.3 mph3.7 kmh 30.33 in1027.1 mb - 0.00 in0.0 mm 0.00 in0.0 mm
04:50 PM 52.8°F11.6°C 35.2°F1.8°C 51% 2.3 mph NE3.7 kmh NE 4.6 mph7.4 kmh 30.33 in1027.1 mb - 0.00 in0.0 mm 0.00 in0.0 mm
04:45 PM 53.2°F11.8°C 35.0°F1.7°C 50% 2.3 mph NE3.7 kmh NE 4.6 mph7.4 kmh 30.33 in1027.1 mb - 0.00 in0.0 mm 0.00 in0.0 mm
04:40 PM 53.5°F11.9°C 35.3°F1.8°C 50% Calm Calm -- 30.33 in1027.1 mb - 0.00 in0.0 mm 0.00 in0.0 mm
04:30 PM 53.3°F11.8°C 35.1°F1.7°C 50% 3.5 mph NW5.6 kmh NW 4.6 mph7.4 kmh 30.34 in1027.4 mb - 0.00 in0.0 mm 0.00 in0.0 mm
04:20 PM 53.2°F11.8°C 35.5°F1.9°C 51% 6.9 mph NW11.1 kmh NW 8.1 mph13.0 kmh 30.34 in1027.4 mb - 0.00 in0.0 mm 0.00 in0.0 mm
04:15 PM 53.3°F11.8°C 35.1°F1.7°C 50% 1.2 mph NW1.9 kmh NW 2.3 mph3.7 kmh 30.34 in1027.4 mb - 0.00 in0.0 mm 0.00 in0.0 mm
04:10 PM 53.6°F12.0°C 36.4°F2.4°C 52% 5.8 mph NW9.3 kmh NW 6.9 mph11.1 kmh 30.33 in1027.1 mb - 0.00 in0.0 mm 0.00 in0.0 mm
04:00 PM 52.8°F11.6°C 35.6°F2.0°C 52% 3.5 mph NNW5.6 kmh NNW 6.9 mph11.1 kmh 30.33 in1027.1 mb - 0.00 in0.0 mm 0.00 in0.0 mm
03:50 PM 52.8°F11.6°C 35.1°F1.7°C 51% 2.3 mph NNE3.7 kmh NNE 6.9 mph11.1 kmh 30.33 in1027.1 mb - 0.00 in0.0 mm 0.00 in0.0 mm
03:45 PM 53.2°F11.8°C 35.5°F1.9°C 51% 4.6 mph N7.4 kmh N 6.9 mph11.1 kmh 30.33 in1027.1 mb - 0.00 in0.0 mm 0.00 in0.0 mm
03:40 PM 53.3°F11.8°C 36.1°F2.3°C 52% 5.8 mph NW9.3 kmh NW 6.9 mph11.1 kmh 30.33 in1027.1 mb - 0.00 in0.0 mm 0.00 in0.0 mm
03:30 PM 52.8°F11.6°C 35.7°F2.1°C 52% 1.2 mph NW1.9 kmh NW 3.5 mph5.6 kmh 30.33 in1027.1 mb - 0.00 in0.0 mm 0.00 in0.0 mm
03:20 PM 52.3°F11.3°C 36.1°F2.3°C 54% 3.5 mph NNE5.6 kmh NNE 5.8 mph9.3 kmh 30.34 in1027.4 mb - 0.00 in0.0 mm 0.00 in0.0 mm
03:15 PM 52.3°F11.3°C 36.6°F2.6°C 55% 5.8 mph N9.3 kmh N 6.9 mph11.1 kmh 30.34 in1027.4 mb - 0.00 in0.0 mm 0.00 in0.0 mm
03:10 PM 52.4°F11.3°C 36.7°F2.6°C 55% 3.5 mph 5.6 kmh 4.6 mph7.4 kmh 30.34 in1027.4 mb - 0.00 in0.0 mm 0.00 in0.0 mm
03:00 PM 52.6°F11.4°C 36.4°F2.4°C 54% 5.8 mph NW9.3 kmh NW 8.1 mph13.0 kmh 30.34 in1027.4 mb - 0.00 in0.0 mm 0.00 in0.0 mm
02:50 PM 52.1°F11.2°C 36.0°F2.2°C 54% 6.9 mph N11.1 kmh N 9.2 mph14.8 kmh 30.34 in1027.4 mb - 0.00 in0.0 mm 0.00 in0.0 mm
02:45 PM 52.0°F11.1°C 36.4°F2.4°C 55% 8.1 mph NNW13.0 kmh NNW 9.2 mph14.8 kmh 30.35 in1027.8 mb - 0.00 in0.0 mm 0.00 in0.0 mm
02:40 PM 52.0°F11.1°C 35.9°F2.2°C 54% 5.8 mph N9.3 kmh N 9.2 mph14.8 kmh 30.34 in1027.4 mb - 0.00 in0.0 mm 0.00 in0.0 mm
02:30 PM 52.5°F11.4°C 35.9°F2.2°C 53% 5.8 mph N9.3 kmh N 8.1 mph13.0 kmh 30.34 in1027.4 mb - 0.00 in0.0 mm 0.00 in0.0 mm
02:20 PM 53.2°F11.8°C 36.0°F2.2°C 52% 5.8 mph N9.3 kmh N 8.1 mph13.0 kmh 30.34 in1027.4 mb - 0.00 in0.0 mm 0.00 in0.0 mm
02:15 PM 53.6°F12.0°C 36.4°F2.4°C 52% 2.3 mph NE3.7 kmh NE 3.5 mph5.6 kmh 30.35 in1027.8 mb - 0.00 in0.0 mm 0.00 in0.0 mm
02:10 PM 53.4°F11.9°C 37.1°F2.8°C 54% 3.5 mph NNW5.6 kmh NNW 6.9 mph11.1 kmh 30.35 in1027.8 mb - 0.00 in0.0 mm 0.00 in0.0 mm
02:00 PM 51.7°F10.9°C 36.1°F2.3°C 55% 5.8 mph N9.3 kmh N 8.1 mph13.0 kmh 30.35 in1027.8 mb - 0.00 in0.0 mm 0.00 in0.0 mm
01:50 PM 53.0°F11.7°C 36.8°F2.7°C 54% 9.2 mph N14.8 kmh N 11.5 mph18.5 kmh 30.35 in1027.8 mb - 0.00 in0.0 mm 0.00 in0.0 mm
01:45 PM 52.6°F11.4°C 36.9°F2.7°C 55% 5.8 mph N9.3 kmh N 8.1 mph13.0 kmh 30.35 in1027.8 mb - 0.00 in0.0 mm 0.00 in0.0 mm
01:40 PM 51.7°F10.9°C 36.5°F2.5°C 56% 5.8 mph N9.3 kmh N 8.1 mph13.0 kmh 30.35 in1027.8 mb - 0.00 in0.0 mm 0.00 in0.0 mm
01:30 PM 51.5°F10.8°C 36.8°F2.7°C 57% 3.5 mph NNW5.6 kmh NNW 4.6 mph7.4 kmh 30.36 in1028.1 mb - 0.00 in0.0 mm 0.00 in0.0 mm
01:20 PM 51.2°F10.7°C 36.9°F2.7°C 58% 5.8 mph NNE9.3 kmh NNE 8.1 mph13.0 kmh 30.36 in1028.1 mb - 0.00 in0.0 mm 0.00 in0.0 mm
01:15 PM 50.9°F10.5°C 36.7°F2.6°C 58% 8.1 mph N13.0 kmh N 9.2 mph14.8 kmh 30.37 in1028.4 mb - 0.00 in0.0 mm 0.00 in0.0 mm
01:10 PM 50.8°F10.4°C 37.8°F3.2°C 61% 6.9 mph NE11.1 kmh NE 12.7 mph20.4 kmh 30.37 in1028.4 mb - 0.00 in0.0 mm 0.00 in0.0 mm
01:00 PM 51.0°F10.6°C 38.1°F3.4°C 61% 3.5 mph N5.6 kmh N 6.9 mph11.1 kmh 30.37 in1028.4 mb - 0.00 in0.0 mm 0.00 in0.0 mm
12:50 PM 50.1°F10.1°C 38.4°F3.6°C 64% 1.2 mph NE1.9 kmh NE 3.5 mph5.6 kmh 30.38 in1028.8 mb - 0.00 in0.0 mm 0.00 in0.0 mm
12:45 PM 49.7°F9.8°C 38.0°F3.3°C 64% 4.6 mph WNW7.4 kmh WNW 8.1 mph13.0 kmh 30.38 in1028.8 mb - 0.00 in0.0 mm 0.00 in0.0 mm
12:40 PM 49.8°F9.9°C 38.1°F3.4°C 64% 6.9 mph NW11.1 kmh NW 10.4 mph16.7 kmh 30.38 in1028.8 mb - 0.00 in0.0 mm 0.00 in0.0 mm
12:30 PM 49.3°F9.6°C 38.1°F3.4°C 65% 9.2 mph N14.8 kmh N 15.0 mph24.1 kmh 30.38 in1028.8 mb - 0.00 in0.0 mm 0.00 in0.0 mm
12:20 PM 48.4°F9.1°C 38.0°F3.3°C 67% 9.2 mph N14.8 kmh N 8.1 mph13.0 kmh 30.39 in1029.1 mb - 0.00 in0.0 mm 0.00 in0.0 mm
12:15 PM 48.0°F8.9°C 38.0°F3.3°C 68% 4.6 mph N7.4 kmh N 6.9 mph11.1 kmh 30.40 in1029.5 mb - 0.00 in0.0 mm 0.00 in0.0 mm
12:10 PM 47.8°F8.8°C 37.4°F3.0°C 67% 5.8 mph NW9.3 kmh NW 6.9 mph11.1 kmh 30.40 in1029.5 mb - 0.00 in0.0 mm 0.00 in0.0 mm
12:00 PM 48.3°F9.1°C 39.0°F3.9°C 70% 6.9 mph NE11.1 kmh NE 10.4 mph16.7 kmh 30.40 in1029.5 mb - 0.00 in0.0 mm 0.00 in0.0 mm
11:50 AM 47.1°F8.4°C 38.5°F3.6°C 72% 9.2 mph NNE14.8 kmh NNE 11.5 mph18.5 kmh 30.41 in1029.8 mb - 0.00 in0.0 mm 0.00 in0.0 mm
11:45 AM 46.4°F8.0°C 38.6°F3.7°C 74% 8.1 mph NNW13.0 kmh NNW 11.5 mph18.5 kmh 30.41 in1029.8 mb - 0.00 in0.0 mm 0.00 in0.0 mm
11:40 AM 46.0°F7.8°C 37.8°F3.2°C 73% 6.9 mph NW11.1 kmh NW 6.9 mph11.1 kmh 30.41 in1029.8 mb - 0.00 in0.0 mm 0.00 in0.0 mm
11:30 AM 46.5°F8.1°C 38.3°F3.5°C 73% 6.9 mph N11.1 kmh N 10.4 mph16.7 kmh 30.41 in1029.8 mb - 0.00 in0.0 mm 0.00 in0.0 mm
11:20 AM 46.6°F8.1°C 38.4°F3.6°C 73% 5.8 mph N9.3 kmh N 8.1 mph13.0 kmh 30.41 in1029.8 mb - 0.00 in0.0 mm 0.00 in0.0 mm
11:15 AM 46.0°F7.8°C 38.2°F3.4°C 74% 10.4 mph N16.7 kmh N 12.7 mph20.4 kmh 30.41 in1029.8 mb - 0.00 in0.0 mm 0.00 in0.0 mm
11:10 AM 45.5°F7.5°C 37.7°F3.2°C 74% 8.1 mph NNW13.0 kmh NNW 9.2 mph14.8 kmh 30.41 in1029.8 mb - 0.00 in0.0 mm 0.00 in0.0 mm
11:00 AM 45.3°F7.4°C 37.5°F3.1°C 74% 5.8 mph NNW9.3 kmh NNW 13.8 mph22.2 kmh 30.41 in1029.8 mb - 0.00 in0.0 mm 0.00 in0.0 mm
10:50 AM 45.4°F7.4°C 38.2°F3.4°C 76% 5.8 mph N9.3 kmh N 10.4 mph16.7 kmh 30.40 in1029.5 mb - 0.00 in0.0 mm 0.00 in0.0 mm
10:45 AM 44.8°F7.1°C 37.7°F3.2°C 76% 9.2 mph N14.8 kmh N 12.7 mph20.4 kmh 30.40 in1029.5 mb - 0.00 in0.0 mm 0.00 in0.0 mm
10:40 AM 44.9°F7.2°C 38.5°F3.6°C 78% 9.2 mph N14.8 kmh N 10.4 mph16.7 kmh 30.40 in1029.5 mb - 0.00 in0.0 mm 0.00 in0.0 mm
10:30 AM 43.4°F6.3°C 37.6°F3.1°C 80% 10.4 mph N16.7 kmh N 13.8 mph22.2 kmh 30.40 in1029.5 mb - 0.00 in0.0 mm 0.00 in0.0 mm
10:20 AM 43.1°F6.2°C 37.7°F3.2°C 81% 8.1 mph NNE13.0 kmh NNE 10.4 mph16.7 kmh 30.40 in1029.5 mb - 0.00 in0.0 mm 0.00 in0.0 mm
10:15 AM 43.1°F6.2°C 37.7°F3.2°C 81% 10.4 mph N16.7 kmh N 12.7 mph20.4 kmh 30.40 in1029.5 mb - 0.00 in0.0 mm 0.00 in0.0 mm
10:10 AM 43.0°F6.1°C 37.6°F3.1°C 81% 6.9 mph N11.1 kmh N 8.1 mph13.0 kmh 30.40 in1029.5 mb - 0.00 in0.0 mm 0.00 in0.0 mm
10:00 AM 43.2°F6.2°C 37.7°F3.2°C 81% 9.2 mph N14.8 kmh N 11.5 mph18.5 kmh 30.40 in1029.5 mb - 0.00 in0.0 mm 0.00 in0.0 mm
09:50 AM 43.1°F6.2°C 37.7°F3.2°C 81% 5.8 mph NNE9.3 kmh NNE 8.1 mph13.0 kmh 30.39 in1029.1 mb - 0.00 in0.0 mm 0.00 in0.0 mm
09:45 AM 42.8°F6.0°C 37.7°F3.2°C 82% 5.8 mph NNE9.3 kmh NNE 11.5 mph18.5 kmh 30.38 in1028.8 mb - 0.00 in0.0 mm 0.00 in0.0 mm
09:40 AM 42.7°F5.9°C 37.6°F3.1°C 82% 9.2 mph N14.8 kmh N 12.7 mph20.4 kmh 30.38 in1028.8 mb - 0.00 in0.0 mm 0.00 in0.0 mm
09:30 AM 42.8°F6.0°C 37.7°F3.2°C 82% 5.8 mph NE9.3 kmh NE 10.4 mph16.7 kmh 30.37 in1028.4 mb - 0.00 in0.0 mm 0.00 in0.0 mm
09:20 AM 42.0°F5.6°C 37.5°F3.1°C 84% 3.5 mph NNE5.6 kmh NNE 8.1 mph13.0 kmh 30.36 in1028.1 mb - 0.00 in0.0 mm 0.00 in0.0 mm
09:15 AM 41.3°F5.2°C 37.1°F2.8°C 85% 2.3 mph NE3.7 kmh NE 4.6 mph7.4 kmh 30.36 in1028.1 mb - 0.00 in0.0 mm 0.00 in0.0 mm
09:10 AM 40.4°F4.7°C 36.2°F2.3°C 85% 8.1 mph N13.0 kmh N 13.8 mph22.2 kmh 30.35 in1027.8 mb - 0.00 in0.0 mm 0.00 in0.0 mm
09:00 AM 37.7°F3.2°C 33.3°F0.7°C 84% 1.2 mph NNE1.9 kmh NNE 3.5 mph5.6 kmh 30.35 in1027.8 mb - 0.00 in0.0 mm 0.00 in0.0 mm
08:50 AM 36.5°F2.5°C 32.1°F0.1°C 84% 1.2 mph NW1.9 kmh NW -- 30.34 in1027.4 mb - 0.00 in0.0 mm 0.00 in0.0 mm
08:45 AM 35.9°F2.2°C 31.5°F-0.3°C 84% 2.3 mph NW3.7 kmh NW 2.3 mph3.7 kmh 30.34 in1027.4 mb - 0.00 in0.0 mm 0.00 in0.0 mm
08:40 AM 35.2°F1.8°C 30.9°F-0.6°C 84% 3.5 mph NW5.6 kmh NW 4.6 mph7.4 kmh 30.34 in1027.4 mb - 0.00 in0.0 mm 0.00 in0.0 mm
08:30 AM 34.0°F1.1°C 29.4°F-1.4°C 83% 2.3 mph NNW3.7 kmh NNW 3.5 mph5.6 kmh 30.33 in1027.1 mb - 0.00 in0.0 mm 0.00 in0.0 mm
08:20 AM 33.3°F0.7°C 28.7°F-1.8°C 83% 3.5 mph NW5.6 kmh NW 5.8 mph9.3 kmh 30.33 in1027.1 mb - 0.00 in0.0 mm 0.00 in0.0 mm
08:15 AM 33.0°F0.6°C 28.4°F-2.0°C 83% 3.5 mph NNW5.6 kmh NNW 5.8 mph9.3 kmh 30.33 in1027.1 mb - 0.00 in0.0 mm 0.00 in0.0 mm
08:10 AM 32.8°F0.4°C 28.2°F-2.1°C 83% 3.5 mph NNW5.6 kmh NNW 4.6 mph7.4 kmh 30.32 in1026.8 mb - 0.00 in0.0 mm 0.00 in0.0 mm
08:00 AM 32.5°F0.3°C 27.9°F-2.3°C 83% 4.6 mph N7.4 kmh N 5.8 mph9.3 kmh 30.32 in1026.8 mb - 0.00 in0.0 mm 0.00 in0.0 mm
07:50 AM 32.2°F0.1°C 27.3°F-2.6°C 82% 5.8 mph N9.3 kmh N 8.1 mph13.0 kmh 30.31 in1026.4 mb - 0.00 in0.0 mm 0.00 in0.0 mm
07:45 AM 32.3°F0.2°C 27.7°F-2.4°C 83% 4.6 mph N7.4 kmh N 6.9 mph11.1 kmh 30.31 in1026.4 mb - 0.00 in0.0 mm 0.00 in0.0 mm
07:40 AM 32.3°F0.2°C 27.7°F-2.4°C 83% 3.5 mph N5.6 kmh N 4.6 mph7.4 kmh 30.31 in1026.4 mb - 0.00 in0.0 mm 0.00 in0.0 mm
07:30 AM 32.3°F0.2°C 27.7°F-2.4°C 83% 3.5 mph N5.6 kmh N 5.8 mph9.3 kmh 30.31 in1026.4 mb - 0.00 in0.0 mm 0.00 in0.0 mm
07:20 AM 32.3°F0.2°C 27.4°F-2.6°C 82% 5.8 mph N9.3 kmh N 6.9 mph11.1 kmh 30.30 in1026.1 mb - 0.00 in0.0 mm 0.00 in0.0 mm
07:15 AM 32.4°F0.2°C 27.5°F-2.5°C 82% 4.6 mph NW7.4 kmh NW 8.1 mph13.0 kmh 30.30 in1026.1 mb - 0.00 in0.0 mm 0.00 in0.0 mm
07:10 AM 32.4°F0.2°C 27.5°F-2.5°C 82% 3.5 mph N5.6 kmh N 6.9 mph11.1 kmh 30.29 in1025.7 mb - 0.00 in0.0 mm 0.00 in0.0 mm
07:00 AM 32.2°F0.1°C 27.3°F-2.6°C 82% 2.3 mph NNW3.7 kmh NNW 4.6 mph7.4 kmh 30.28 in1025.4 mb - 0.00 in0.0 mm 0.00 in0.0 mm
06:50 AM 32.0°F0.0°C 26.8°F-2.9°C 81% 4.6 mph NNW7.4 kmh NNW 6.9 mph11.1 kmh 30.28 in1025.4 mb - 0.00 in0.0 mm 0.00 in0.0 mm
06:45 AM 32.0°F0.0°C 26.5°F-3.1°C 80% 1.2 mph NNW1.9 kmh NNW 6.9 mph11.1 kmh 30.28 in1025.4 mb - 0.00 in0.0 mm 0.00 in0.0 mm
06:40 AM 32.0°F0.0°C 26.5°F-3.1°C 80% 2.3 mph N3.7 kmh N 5.8 mph9.3 kmh 30.27 in1025.1 mb - 0.00 in0.0 mm 0.00 in0.0 mm
06:30 AM 32.1°F0.1°C 26.3°F-3.2°C 79% 2.3 mph NW3.7 kmh NW 5.8 mph9.3 kmh 30.27 in1025.1 mb - 0.00 in0.0 mm 0.00 in0.0 mm
06:20 AM 32.0°F0.0°C 26.5°F-3.1°C 80% 3.5 mph NW5.6 kmh NW 4.6 mph7.4 kmh 30.26 in1024.7 mb - 0.00 in0.0 mm 0.00 in0.0 mm
06:15 AM 31.7°F-0.2°C 26.2°F-3.2°C 80% 4.6 mph NW7.4 kmh NW 6.9 mph11.1 kmh 30.26 in1024.7 mb - 0.00 in0.0 mm 0.00 in0.0 mm
06:10 AM 31.4°F-0.3°C 25.9°F-3.4°C 80% 3.5 mph WNW5.6 kmh WNW 3.5 mph5.6 kmh 30.26 in1024.7 mb - 0.00 in0.0 mm 0.00 in0.0 mm
06:00 AM 31.2°F-0.4°C 25.8°F-3.4°C 80% 3.5 mph WNW5.6 kmh WNW 6.9 mph11.1 kmh 30.25 in1024.4 mb - 0.00 in0.0 mm 0.00 in0.0 mm
05:50 AM 31.0°F-0.6°C 25.5°F-3.6°C 80% 3.5 mph WNW5.6 kmh WNW 8.1 mph13.0 kmh 30.25 in1024.4 mb - 0.00 in0.0 mm 0.00 in0.0 mm
05:45 AM 30.9°F-0.6°C 25.4°F-3.7°C 80% 3.5 mph W5.6 kmh W 6.9 mph11.1 kmh 30.24 in1024.0 mb - 0.00 in0.0 mm 0.00 in0.0 mm
05:40 AM 30.8°F-0.7°C 25.4°F-3.7°C 80% 3.5 mph WNW5.6 kmh WNW 5.8 mph9.3 kmh 30.24 in1024.0 mb - 0.00 in0.0 mm 0.00 in0.0 mm
05:30 AM 31.4°F-0.3°C 25.4°F-3.7°C 78% 1.2 mph W1.9 kmh W 3.5 mph5.6 kmh 30.23 in1023.7 mb - 0.00 in0.0 mm 0.00 in0.0 mm
05:20 AM 32.6°F0.3°C 25.9°F-3.4°C 76% 3.5 mph WNW5.6 kmh WNW 4.6 mph7.4 kmh 30.23 in1023.7 mb - 0.00 in0.0 mm 0.00 in0.0 mm
05:15 AM 33.2°F0.7°C 25.8°F-3.4°C 74% Calm Calm -- 30.22 in1023.4 mb - 0.00 in0.0 mm 0.00 in0.0 mm
05:10 AM 33.6°F0.9°C 26.2°F-3.2°C 74% Calm Calm -- 30.21 in1023.0 mb - 0.00 in0.0 mm 0.00 in0.0 mm
05:00 AM 34.2°F1.2°C 26.5°F-3.1°C 73% Calm Calm -- 30.21 in1023.0 mb - 0.00 in0.0 mm 0.00 in0.0 mm
04:50 AM 34.7°F1.5°C 26.6°F-3.0°C 72% Calm Calm -- 30.21 in1023.0 mb - 0.00 in0.0 mm 0.00 in0.0 mm
04:45 AM 35.0°F1.7°C 26.5°F-3.1°C 71% Calm Calm -- 30.21 in1023.0 mb - 0.00 in0.0 mm 0.00 in0.0 mm
04:40 AM 35.2°F1.8°C 26.8°F-2.9°C 71% Calm Calm -- 30.21 in1023.0 mb - 0.00 in0.0 mm 0.00 in0.0 mm
04:30 AM 35.4°F1.9°C 27.3°F-2.6°C 72% 1.2 mph WNW1.9 kmh WNW 2.3 mph3.7 kmh 30.21 in1023.0 mb - 0.00 in0.0 mm 0.00 in0.0 mm
04:20 AM 35.6°F2.0°C 27.8°F-2.3°C 73% Calm Calm 1.2 mph1.9 kmh 30.21 in1023.0 mb - 0.00 in0.0 mm 0.00 in0.0 mm
04:15 AM 35.6°F2.0°C 27.8°F-2.3°C 73% 1.2 mph W1.9 kmh W 3.5 mph5.6 kmh 30.21 in1023.0 mb - 0.00 in0.0 mm 0.00 in0.0 mm
04:10 AM 35.5°F1.9°C 28.0°F-2.2°C 74% 1.2 mph W1.9 kmh W -- 30.21 in1023.0 mb - 0.00 in0.0 mm 0.00 in0.0 mm
04:00 AM 35.3°F1.8°C 28.2°F-2.1°C 75% 2.3 mph W3.7 kmh W 2.3 mph3.7 kmh 30.21 in1023.0 mb - 0.00 in0.0 mm 0.00 in0.0 mm
03:50 AM 35.7°F2.1°C 27.5°F-2.5°C 72% Calm Calm -- 30.20 in1022.7 mb - 0.00 in0.0 mm 0.00 in0.0 mm
03:45 AM 36.2°F2.3°C 27.3°F-2.6°C 70% Calm Calm -- 30.20 in1022.7 mb - 0.00 in0.0 mm 0.00 in0.0 mm
03:40 AM 36.8°F2.7°C 28.0°F-2.2°C 70% Calm Calm -- 30.20 in1022.7 mb - 0.00 in0.0 mm 0.00 in0.0 mm
03:30 AM 37.7°F3.2°C 28.4°F-2.0°C 69% Calm Calm -- 30.20 in1022.7 mb - 0.00 in0.0 mm 0.00 in0.0 mm
03:20 AM 38.3°F3.5°C 29.3°F-1.5°C 70% Calm Calm 1.2 mph1.9 kmh 30.20 in1022.7 mb - 0.00 in0.0 mm 0.00 in0.0 mm
03:15 AM 38.6°F3.7°C 29.6°F-1.3°C 70% Calm Calm 2.3 mph3.7 kmh 30.20 in1022.7 mb - 0.00 in0.0 mm 0.00 in0.0 mm
03:10 AM 38.8°F3.8°C 29.5°F-1.4°C 69% 2.3 mph W3.7 kmh W 3.5 mph5.6 kmh 30.20 in1022.7 mb - 0.00 in0.0 mm 0.00 in0.0 mm
03:00 AM 39.2°F4.0°C 30.6°F-0.8°C 71% 1.2 mph W1.9 kmh W 1.2 mph1.9 kmh 30.19 in1022.4 mb - 0.00 in0.0 mm 0.00 in0.0 mm
02:50 AM 39.1°F3.9°C 31.5°F-0.3°C 74% 2.3 mph W3.7 kmh W 4.6 mph7.4 kmh 30.19 in1022.4 mb - 0.00 in0.0 mm 0.00 in0.0 mm
02:45 AM 39.2°F4.0°C 32.3°F0.2°C 76% 2.3 mph WSW3.7 kmh WSW 6.9 mph11.1 kmh 30.20 in1022.7 mb - 0.00 in0.0 mm 0.00 in0.0 mm
02:40 AM 39.5°F4.2°C 32.9°F0.5°C 77% 3.5 mph W5.6 kmh W 5.8 mph9.3 kmh 30.20 in1022.7 mb - 0.00 in0.0 mm 0.00 in0.0 mm
02:30 AM 40.2°F4.6°C 33.6°F0.9°C 77% 2.3 mph WSW3.7 kmh WSW 4.6 mph7.4 kmh 30.20 in1022.7 mb - 0.00 in0.0 mm 0.00 in0.0 mm
02:20 AM 40.9°F4.9°C 33.6°F0.9°C 75% 1.2 mph SW1.9 kmh SW 2.3 mph3.7 kmh 30.20 in1022.7 mb - 0.00 in0.0 mm 0.00 in0.0 mm
02:15 AM 41.2°F5.1°C 33.9°F1.1°C 75% 1.2 mph SW1.9 kmh SW 2.3 mph3.7 kmh 30.20 in1022.7 mb - 0.00 in0.0 mm 0.00 in0.0 mm
02:10 AM 41.5°F5.3°C 34.2°F1.2°C 75% 1.2 mph SW1.9 kmh SW 2.3 mph3.7 kmh 30.20 in1022.7 mb - 0.00 in0.0 mm 0.00 in0.0 mm
02:00 AM 42.2°F5.7°C 34.2°F1.2°C 73% 2.3 mph SW3.7 kmh SW 3.5 mph5.6 kmh 30.20 in1022.7 mb - 0.00 in0.0 mm 0.00 in0.0 mm
01:50 AM 43.3°F6.3°C 34.5°F1.4°C 71% 3.5 mph SSW5.6 kmh SSW 5.8 mph9.3 kmh 30.20 in1022.7 mb - 0.00 in0.0 mm 0.00 in0.0 mm
01:45 AM 43.7°F6.5°C 34.9°F1.6°C 71% 2.3 mph SSW3.7 kmh SSW 4.6 mph7.4 kmh 30.20 in1022.7 mb - 0.00 in0.0 mm 0.00 in0.0 mm
01:40 AM 44.0°F6.7°C 34.9°F1.6°C 70% 3.5 mph SSW5.6 kmh SSW 6.9 mph11.1 kmh 30.20 in1022.7 mb - 0.00 in0.0 mm 0.00 in0.0 mm
01:30 AM 44.6°F7.0°C 35.1°F1.7°C 69% 3.5 mph S5.6 kmh S 4.6 mph7.4 kmh 30.19 in1022.4 mb - 0.00 in0.0 mm 0.00 in0.0 mm
01:20 AM 45.0°F7.2°C 35.1°F1.7°C 68% 4.6 mph SSW7.4 kmh SSW 6.9 mph11.1 kmh 30.19 in1022.4 mb - 0.00 in0.0 mm 0.00 in0.0 mm
01:15 AM 45.3°F7.4°C 35.0°F1.7°C 67% 5.8 mph SSW9.3 kmh SSW 8.1 mph13.0 kmh 30.19 in1022.4 mb - 0.00 in0.0 mm 0.00 in0.0 mm
01:10 AM 45.6°F7.6°C 34.8°F1.6°C 66% 6.9 mph S11.1 kmh S 9.2 mph14.8 kmh 30.19 in1022.4 mb - 0.00 in0.0 mm 0.00 in0.0 mm
01:00 AM 46.0°F7.8°C 34.9°F1.6°C 65% 4.6 mph SSE7.4 kmh SSE 8.1 mph13.0 kmh 30.19 in1022.4 mb - 0.00 in0.0 mm 0.00 in0.0 mm
12:50 AM 46.3°F7.9°C 34.0°F1.1°C 62% 5.8 mph SSE9.3 kmh SSE 8.1 mph13.0 kmh 30.19 in1022.4 mb - 0.00 in0.0 mm 0.00 in0.0 mm
12:45 AM 46.6°F8.1°C 33.9°F1.1°C 61% 8.1 mph SE13.0 kmh SE 10.4 mph16.7 kmh 30.19 in1022.4 mb - 0.00 in0.0 mm 0.00 in0.0 mm
12:40 AM 46.8°F8.2°C 33.2°F0.7°C 59% 9.2 mph SSE14.8 kmh SSE 15.0 mph24.1 kmh 30.19 in1022.4 mb - 0.00 in0.0 mm 0.00 in0.0 mm
12:30 AM 47.2°F8.4°C 32.7°F0.4°C 57% 6.9 mph SSE11.1 kmh SSE 11.5 mph18.5 kmh 30.20 in1022.7 mb - 0.00 in0.0 mm 0.00 in0.0 mm
12:20 AM 47.5°F8.6°C 32.5°F0.3°C 56% 6.9 mph SE11.1 kmh SE 17.3 mph27.8 kmh 30.19 in1022.4 mb - 0.00 in0.0 mm 0.00 in0.0 mm
12:15 AM 47.6°F8.7°C 32.7°F0.4°C 56% 5.8 mph SSE9.3 kmh SSE 6.9 mph11.1 kmh 30.19 in1022.4 mb - 0.00 in0.0 mm 0.00 in0.0 mm
12:10 AM 47.8°F8.8°C 32.9°F0.5°C 56% 9.2 mph SSE14.8 kmh SSE 13.8 mph22.2 kmh 30.19 in1022.4 mb - 0.00 in0.0 mm 0.00 in0.0 mm
12:00 AM 48.0°F8.9°C 32.1°F0.1°C 54% 10.4 mph SSE16.7 kmh SSE 10.4 mph16.7 kmh 30.20 in1022.7 mb - 0.00 in0.0 mm 0.00 in0.0 mm